Time;durP1;ratioP1;P1;durP2;ratioP2;P2;SDS_P1;SDS_P2;PMS_P1;PMS_P2;Temp;Humidity;BMP_temperature;BMP_pressure;BME280_temperature;BME280_humidity;BME280_pressure;Samples;Min_cycle;Max_cycle;Signal;HPM_P1;HPM_P2
2022/01/15 00:00:36;;;;;;;1.15;1.10;;;6.20;99.90;;;;;;5075755;28;20567;-84
2022/01/15 00:03:08;;;;;;;0.60;0.60;;;6.10;99.90;;;;;;5061151;28;20604;-84
2022/01/15 00:05:35;;;;;;;0.70;0.70;;;6.10;99.90;;;;;;5074458;28;20130;-84
2022/01/15 00:08:02;;;;;;;0.60;0.60;;;6.20;99.90;;;;;;5053982;28;20041;-85
2022/01/15 00:10:29;;;;;;;0.60;0.60;;;6.20;99.90;;;;;;5061096;28;20041;-85
2022/01/15 00:12:59;;;;;;;0.60;0.60;;;6.20;99.90;;;;;;5056812;28;20115;-85
2022/01/15 00:15:39;;;;;;;0.80;0.80;;;6.20;99.90;;;;;;5070227;28;20045;-85
2022/01/15 00:18:10;;;;;;;0.68;0.68;;;6.20;99.90;;;;;;5079315;28;20088;-85
2022/01/15 00:20:36;;;;;;;0.60;0.60;;;6.20;99.90;;;;;;5067892;28;20045;-86
2022/01/15 00:23:02;;;;;;;1.58;0.85;;;6.20;99.90;;;;;;5073820;28;20136;-85
2022/01/15 00:25:30;;;;;;;0.80;0.80;;;6.40;99.90;;;;;;5055847;28;20037;-84
2022/01/15 00:27:57;;;;;;;0.60;0.60;;;6.20;99.90;;;;;;5057368;28;20033;-83
2022/01/15 00:30:22;;;;;;;0.60;0.60;;;6.20;99.90;;;;;;5048994;28;20042;-86
2022/01/15 00:32:49;;;;;;;0.88;0.88;;;6.20;99.90;;;;;;5055437;28;20072;-85
2022/01/15 00:35:16;;;;;;;0.60;0.60;;;6.20;99.90;;;;;;5059694;28;20033;-84
2022/01/15 00:37:42;;;;;;;0.60;0.60;;;6.20;99.90;;;;;;5072232;28;20068;-85
2022/01/15 00:40:12;;;;;;;1.05;0.95;;;6.20;99.90;;;;;;5075209;28;20033;-84
2022/01/15 00:42:39;;;;;;;0.70;0.70;;;6.20;99.90;;;;;;5058754;28;20045;-85
2022/01/15 00:45:08;;;;;;;0.60;0.60;;;6.10;99.90;;;;;;5069431;28;20104;-84
2022/01/15 00:47:34;;;;;;;0.60;0.60;;;6.10;99.90;;;;;;5074985;28;20398;-85
2022/01/15 00:50:01;;;;;;;0.60;0.60;;;6.10;99.90;;;;;;5058176;28;20190;-85
2022/01/15 00:52:27;;;;;;;0.60;0.60;;;6.10;99.90;;;;;;5061005;28;20388;-84
2022/01/15 00:54:53;;;;;;;0.70;0.70;;;6.10;99.90;;;;;;5087633;28;20057;-85
2022/01/15 00:57:19;;;;;;;0.88;0.88;;;6.10;99.90;;;;;;5070715;28;20037;-85
2022/01/15 00:59:45;;;;;;;0.60;0.60;;;6.10;99.90;;;;;;5077795;28;20051;-85
2022/01/15 01:02:10;;;;;;;0.70;0.70;;;6.10;99.90;;;;;;5057835;28;20579;-85
2022/01/15 01:04:36;;;;;;;0.60;0.60;;;6.10;99.90;;;;;;5079330;28;20367;-85
2022/01/15 01:07:02;;;;;;;0.63;0.63;;;6.10;99.90;;;;;;5062406;28;20043;-85
2022/01/15 01:09:40;;;;;;;0.60;0.60;;;6.10;99.90;;;;;;5059903;28;20083;-85
2022/01/15 01:12:22;;;;;;;0.95;0.93;;;6.10;99.90;;;;;;5079653;28;20063;-85
2022/01/15 01:20:26;;;;;;;0.60;0.60;;;6.10;99.90;;;;;;5027736;28;20390;-85
2022/01/15 01:22:57;;;;;;;0.70;0.70;;;6.10;99.90;;;;;;5072854;28;20113;-85
2022/01/15 01:25:28;;;;;;;0.70;0.70;;;6.10;99.90;;;;;;5058752;28;20052;-85
2022/01/15 01:27:57;;;;;;;1.02;0.95;;;6.10;99.90;;;;;;5075016;28;20063;-85
2022/01/15 01:30:32;;;;;;;0.60;0.60;;;6.10;99.90;;;;;;5079913;28;20135;-84
2022/01/15 01:33:26;;;;;;;0.70;0.70;;;6.20;99.90;;;;;;5058210;28;20052;-85
2022/01/15 01:35:56;;;;;;;0.50;0.50;;;6.10;99.90;;;;;;5077430;28;20076;-85
2022/01/15 01:38:30;;;;;;;0.50;0.50;;;6.10;99.90;;;;;;5046576;28;20033;-85
2022/01/15 01:40:58;;;;;;;0.60;0.60;;;6.10;99.90;;;;;;5061129;28;20048;-85
2022/01/15 01:47:00;;;;;;;0.70;0.70;;;6.10;99.90;;;;;;5078668;28;20044;-85
2022/01/15 01:48:46;;;;;;;0.60;0.60;;;6.10;99.90;;;;;;5056775;28;20108;-85
2022/01/15 01:51:36;;;;;;;0.50;0.50;;;6.00;99.90;;;;;;5061300;28;20064;-84
2022/01/15 01:54:05;;;;;;;0.60;0.60;;;6.10;99.90;;;;;;5075187;28;20108;-85
2022/01/15 01:56:32;;;;;;;0.60;0.60;;;6.10;99.90;;;;;;5075224;28;20086;-85
2022/01/15 01:58:58;;;;;;;0.80;0.80;;;6.00;99.90;;;;;;5072446;28;20044;-85
2022/01/15 02:01:25;;;;;;;0.60;0.60;;;6.00;99.90;;;;;;5076748;28;20039;-85
2022/01/15 02:03:51;;;;;;;0.60;0.60;;;6.00;99.90;;;;;;5072081;28;20051;-85
2022/01/15 02:06:18;;;;;;;1.35;1.10;;;6.00;99.90;;;;;;5076692;28;20040;-85
2022/01/15 02:08:44;;;;;;;0.60;0.60;;;6.00;99.90;;;;;;5067841;28;20084;-85
2022/01/15 02:11:10;;;;;;;0.60;0.60;;;6.00;99.90;;;;;;5050476;28;20494;-85
2022/01/15 02:13:39;;;;;;;0.70;0.70;;;6.00;99.90;;;;;;5061278;28;20036;-85
2022/01/15 02:16:05;;;;;;;0.60;0.60;;;6.00;99.90;;;;;;5046048;28;20041;-85
2022/01/15 02:18:31;;;;;;;0.63;0.63;;;6.00;99.90;;;;;;5068372;28;20139;-85
2022/01/15 02:23:51;;;;;;;2.05;1.67;;;6.00;99.90;;;;;;5040001;28;20072;-85
2022/01/15 02:26:26;;;;;;;0.55;0.55;;;6.00;99.90;;;;;;5049218;28;20032;-85
2022/01/15 02:28:57;;;;;;;1.73;0.95;;;6.00;99.90;;;;;;5050243;28;20117;-85
2022/01/15 02:31:24;;;;;;;0.85;0.85;;;6.00;99.90;;;;;;5070222;28;20033;-85
2022/01/15 02:33:52;;;;;;;0.60;0.60;;;5.90;99.90;;;;;;5064732;28;20057;-84
2022/01/15 02:36:30;;;;;;;0.60;0.60;;;5.90;99.90;;;;;;5050311;28;20033;-84
2022/01/15 02:38:55;;;;;;;1.38;0.70;;;5.90;99.90;;;;;;5066806;28;20566;-85
2022/01/15 02:41:32;;;;;;;0.50;0.50;;;5.90;99.90;;;;;;5060891;28;20036;-85
2022/01/15 02:44:00;;;;;;;0.70;0.70;;;5.90;99.90;;;;;;5070207;28;20045;-85
2022/01/15 02:48:59;;;;;;;0.63;0.63;;;6.00;99.90;;;;;;5071697;28;20053;-84
2022/01/15 02:51:28;;;;;;;0.60;0.60;;;5.90;99.90;;;;;;5075861;28;20040;-85
2022/01/15 02:53:55;;;;;;;0.68;0.68;;;6.00;99.90;;;;;;5059388;28;20032;-85
2022/01/15 02:56:35;;;;;;;1.40;1.15;;;5.90;99.90;;;;;;5060075;28;20041;-85
2022/01/15 02:59:03;;;;;;;1.65;1.30;;;5.90;99.90;;;;;;5075815;28;20112;-85
2022/01/15 03:01:29;;;;;;;0.60;0.60;;;5.90;99.90;;;;;;5067559;28;20041;-85
2022/01/15 03:03:55;;;;;;;0.63;0.63;;;5.90;99.90;;;;;;5072491;28;20079;-85
2022/01/15 03:06:21;;;;;;;0.60;0.60;;;5.90;99.90;;;;;;5058456;28;20032;-85
2022/01/15 03:08:50;;;;;;;0.60;0.60;;;5.90;99.90;;;;;;5058398;28;20032;-85
2022/01/15 03:11:15;;;;;;;0.60;0.60;;;5.90;99.90;;;;;;5061312;28;20047;-84
2022/01/15 03:13:42;;;;;;;0.60;0.60;;;5.90;99.90;;;;;;5074293;28;20423;-85
2022/01/15 03:16:11;;;;;;;0.70;0.70;;;5.90;99.90;;;;;;5056030;28;20037;-85
2022/01/15 03:18:37;;;;;;;0.60;0.60;;;5.90;99.90;;;;;;5058022;28;20078;-85
2022/01/15 03:21:03;;;;;;;0.52;0.52;;;5.90;99.90;;;;;;5073654;28;20044;-85
2022/01/15 03:23:29;;;;;;;0.50;0.50;;;5.90;99.90;;;;;;5083255;28;20044;-85
2022/01/15 03:25:55;;;;;;;0.60;0.60;;;5.90;99.90;;;;;;5056590;28;20041;-85
2022/01/15 03:28:20;;;;;;;0.52;0.52;;;5.90;99.90;;;;;;5056484;28;20044;-85
2022/01/15 03:30:46;;;;;;;0.75;0.75;;;5.90;99.90;;;;;;5058586;28;20084;-85
2022/01/15 03:33:12;;;;;;;0.55;0.55;;;5.90;99.90;;;;;;5058177;28;20056;-84
2022/01/15 03:35:37;;;;;;;0.50;0.50;;;5.90;99.90;;;;;;5057750;28;20037;-85
2022/01/15 03:38:05;;;;;;;0.60;0.60;;;5.90;99.90;;;;;;5055418;28;20120;-85
2022/01/15 03:40:31;;;;;;;0.68;0.68;;;5.90;99.90;;;;;;5073443;28;20560;-85
2022/01/15 03:42:57;;;;;;;0.55;0.55;;;5.80;99.90;;;;;;5075826;28;20045;-84
2022/01/15 03:45:23;;;;;;;0.60;0.60;;;5.80;99.90;;;;;;5076635;28;20055;-85
2022/01/15 03:47:49;;;;;;;0.55;0.55;;;5.80;99.90;;;;;;5057319;28;20128;-84
2022/01/15 03:50:16;;;;;;;0.52;0.52;;;5.80;99.90;;;;;;5057247;28;20037;-84
2022/01/15 03:52:41;;;;;;;0.80;0.80;;;5.90;99.90;;;;;;5076143;28;20041;-84
2022/01/15 03:55:09;;;;;;;0.60;0.60;;;5.80;99.90;;;;;;5077849;28;20045;-85
2022/01/15 03:57:35;;;;;;;0.50;0.50;;;5.80;99.90;;;;;;5063578;28;20036;-85
2022/01/15 04:00:01;;;;;;;0.60;0.60;;;5.80;99.90;;;;;;5057145;28;20097;-85
2022/01/15 04:02:27;;;;;;;0.60;0.60;;;5.80;99.90;;;;;;5062470;28;20382;-85
2022/01/15 04:04:53;;;;;;;0.60;0.60;;;5.80;99.90;;;;;;5076853;28;20127;-85
2022/01/15 04:07:19;;;;;;;0.65;0.65;;;5.80;99.90;;;;;;5053321;28;20040;-84
2022/01/15 04:09:44;;;;;;;0.60;0.60;;;5.80;99.90;;;;;;5069925;28;20541;-84
2022/01/15 04:12:10;;;;;;;0.60;0.60;;;5.80;99.90;;;;;;5072725;28;20041;-85
2022/01/15 04:14:35;;;;;;;0.60;0.60;;;5.80;99.90;;;;;;5075146;28;20041;-85
2022/01/15 04:17:01;;;;;;;0.57;0.57;;;5.80;99.90;;;;;;5069080;28;20072;-85
2022/01/15 04:19:28;;;;;;;0.60;0.60;;;5.80;99.90;;;;;;5065884;28;20108;-85
2022/01/15 04:21:54;;;;;;;0.60;0.60;;;5.80;99.90;;;;;;5061646;28;20048;-85
2022/01/15 04:24:20;;;;;;;0.60;0.60;;;5.80;99.90;;;;;;5078565;28;20052;-85
2022/01/15 04:26:47;;;;;;;0.60;0.60;;;5.80;99.90;;;;;;5074470;28;20060;-85
2022/01/15 04:29:15;;;;;;;0.60;0.60;;;5.80;99.90;;;;;;5075518;28;20040;-85
2022/01/15 04:31:48;;;;;;;0.60;0.60;;;5.80;99.90;;;;;;5079780;28;20102;-85
2022/01/15 04:34:24;;;;;;;0.60;0.60;;;5.80;99.90;;;;;;5061287;28;20049;-85
2022/01/15 04:36:51;;;;;;;0.60;0.60;;;5.80;99.90;;;;;;5075431;28;20091;-85
2022/01/15 04:39:18;;;;;;;0.50;0.50;;;5.80;99.90;;;;;;5075656;28;20061;-85
2022/01/15 04:41:44;;;;;;;0.60;0.60;;;5.80;99.90;;;;;;5063733;28;20048;-85
2022/01/15 04:44:09;;;;;;;0.60;0.60;;;5.80;99.90;;;;;;5056725;28;20059;-84
2022/01/15 04:46:37;;;;;;;0.77;0.77;;;5.80;99.90;;;;;;5077056;28;20037;-85
2022/01/15 04:49:03;;;;;;;0.60;0.60;;;5.80;99.90;;;;;;5080108;28;20048;-85
2022/01/15 04:51:29;;;;;;;0.63;0.63;;;5.70;99.90;;;;;;5062020;28;20068;-85
2022/01/15 04:53:55;;;;;;;0.60;0.60;;;5.70;99.90;;;;;;5056355;28;20066;-85
2022/01/15 04:56:21;;;;;;;0.60;0.60;;;5.70;99.90;;;;;;5064361;28;20083;-85
2022/01/15 04:58:46;;;;;;;0.60;0.60;;;5.70;99.90;;;;;;5062153;28;20106;-85
2022/01/15 05:01:12;;;;;;;0.60;0.60;;;5.80;99.90;;;;;;5059007;28;20101;-85
2022/01/15 05:03:37;;;;;;;0.70;0.70;;;5.80;99.90;;;;;;5076655;28;20048;-85
2022/01/15 05:06:03;;;;;;;0.60;0.60;;;5.70;99.90;;;;;;5058710;28;20806;-85
2022/01/15 05:08:28;;;;;;;0.60;0.60;;;5.70;99.90;;;;;;5081608;28;20040;-85
2022/01/15 05:10:58;;;;;;;0.60;0.60;;;5.70;99.90;;;;;;5070863;28;20037;-85
2022/01/15 05:13:27;;;;;;;0.60;0.60;;;5.70;99.90;;;;;;5073571;28;20060;-85
2022/01/15 05:15:53;;;;;;;1.20;0.95;;;5.70;99.90;;;;;;5059105;28;20056;-85
2022/01/15 05:18:19;;;;;;;0.70;0.70;;;5.70;99.90;;;;;;5063825;28;20079;-84
2022/01/15 05:20:45;;;;;;;0.63;0.63;;;5.70;99.90;;;;;;5074420;28;20044;-85
2022/01/15 05:23:12;;;;;;;0.60;0.60;;;5.70;99.90;;;;;;5075917;28;20096;-84
2022/01/15 05:25:38;;;;;;;0.90;0.90;;;5.70;99.90;;;;;;5061087;28;20041;-85
2022/01/15 05:28:04;;;;;;;0.60;0.60;;;5.70;99.90;;;;;;5077619;28;20119;-84
2022/01/15 05:30:31;;;;;;;0.60;0.60;;;5.70;99.90;;;;;;5076035;28;20044;-85
2022/01/15 05:32:58;;;;;;;0.60;0.60;;;5.70;99.90;;;;;;5071312;28;20075;-83
2022/01/15 05:35:26;;;;;;;0.60;0.60;;;5.70;99.90;;;;;;5080391;28;20036;-84
2022/01/15 05:37:56;;;;;;;0.60;0.60;;;5.70;99.90;;;;;;5056419;28;20137;-84
2022/01/15 05:40:23;;;;;;;0.60;0.60;;;5.70;99.90;;;;;;5061430;28;20033;-84
2022/01/15 05:42:49;;;;;;;1.13;0.95;;;5.70;99.90;;;;;;5060037;28;20044;-84
2022/01/15 05:45:15;;;;;;;0.70;0.70;;;5.70;99.90;;;;;;5059768;28;20116;-85
2022/01/15 05:47:40;;;;;;;0.60;0.60;;;5.70;99.90;;;;;;5069185;28;20041;-85
2022/01/15 05:50:07;;;;;;;0.60;0.60;;;5.80;99.90;;;;;;5045834;28;20070;-85
2022/01/15 05:52:32;;;;;;;0.70;0.70;;;5.80;99.90;;;;;;5063089;28;20097;-84
2022/01/15 05:54:58;;;;;;;0.70;0.70;;;5.80;99.90;;;;;;5066033;28;20072;-84
2022/01/15 05:57:24;;;;;;;0.70;0.70;;;5.80;99.90;;;;;;5061050;28;20093;-83
2022/01/15 05:59:51;;;;;;;0.70;0.70;;;5.70;99.90;;;;;;5045654;28;20072;-85
2022/01/15 06:02:18;;;;;;;0.70;0.70;;;5.80;99.90;;;;;;5053493;28;20033;-84
2022/01/15 06:04:44;;;;;;;0.70;0.70;;;5.70;99.90;;;;;;5066793;28;20053;-84
2022/01/15 06:07:09;;;;;;;0.60;0.60;;;5.70;99.90;;;;;;5077715;28;20048;-85
2022/01/15 06:09:35;;;;;;;0.60;0.60;;;5.70;99.90;;;;;;5050669;28;20460;-85
2022/01/15 06:12:01;;;;;;;0.82;0.82;;;5.70;99.90;;;;;;5067858;28;20036;-85
2022/01/15 06:14:28;;;;;;;0.60;0.60;;;5.70;99.90;;;;;;5069663;28;20128;-84
2022/01/15 06:16:53;;;;;;;0.60;0.60;;;5.70;99.90;;;;;;5048623;28;20453;-83
2022/01/15 06:19:19;;;;;;;0.60;0.60;;;5.70;99.90;;;;;;5051445;28;20059;-84
2022/01/15 06:21:44;;;;;;;0.50;0.50;;;5.70;99.90;;;;;;5067539;28;20043;-84
2022/01/15 06:24:10;;;;;;;0.73;0.73;;;5.70;99.90;;;;;;5070417;28;20074;-84
2022/01/15 06:26:35;;;;;;;0.60;0.60;;;5.70;99.90;;;;;;5056166;28;20033;-85
2022/01/15 06:29:01;;;;;;;0.60;0.60;;;5.70;99.90;;;;;;5078678;28;20144;-84
2022/01/15 06:31:28;;;;;;;0.60;0.60;;;5.70;99.90;;;;;;5059871;28;20047;-85
2022/01/15 06:33:53;;;;;;;0.60;0.60;;;5.70;99.90;;;;;;5069382;28;20096;-85
2022/01/15 06:36:19;;;;;;;0.60;0.60;;;5.70;99.90;;;;;;5068556;28;20106;-85
2022/01/15 06:38:45;;;;;;;0.60;0.60;;;5.70;99.90;;;;;;5057069;28;20049;-85
2022/01/15 06:41:10;;;;;;;0.60;0.60;;;5.80;99.90;;;;;;5063343;28;20099;-84
2022/01/15 06:43:36;;;;;;;0.60;0.60;;;5.70;99.90;;;;;;5073055;28;20066;-85
2022/01/15 06:46:01;;;;;;;0.60;0.60;;;5.60;99.90;;;;;;5073895;28;20041;-84
2022/01/15 06:48:29;;;;;;;0.60;0.60;;;5.60;99.90;;;;;;5053909;28;20040;-85
2022/01/15 06:50:55;;;;;;;0.60;0.60;;;5.60;99.90;;;;;;5073906;28;20052;-84
2022/01/15 06:53:20;;;;;;;0.70;0.70;;;5.60;99.90;;;;;;5075945;28;20699;-85
2022/01/15 06:55:49;;;;;;;0.50;0.50;;;5.60;99.90;;;;;;5074604;28;20111;-85
2022/01/15 06:58:15;;;;;;;0.60;0.60;;;5.60;99.90;;;;;;5069905;28;20036;-85
2022/01/15 07:00:41;;;;;;;0.80;0.80;;;5.60;99.90;;;;;;5058305;28;20044;-85
2022/01/15 07:03:07;;;;;;;0.75;0.75;;;5.60;99.90;;;;;;5059833;28;20051;-85
2022/01/15 07:05:32;;;;;;;0.60;0.60;;;5.60;99.90;;;;;;5072516;28;20049;-85
2022/01/15 07:07:58;;;;;;;0.70;0.70;;;5.60;99.90;;;;;;5077171;28;20569;-85
2022/01/15 07:10:24;;;;;;;0.60;0.60;;;5.60;99.90;;;;;;5076230;28;20067;-85
2022/01/15 07:12:51;;;;;;;0.60;0.60;;;5.60;99.90;;;;;;5074004;28;20074;-85
2022/01/15 07:15:17;;;;;;;1.27;1.00;;;5.60;99.90;;;;;;5059564;28;20075;-85
2022/01/15 07:17:44;;;;;;;0.60;0.60;;;5.60;99.90;;;;;;5075810;28;20044;-85
2022/01/15 07:20:11;;;;;;;0.95;0.95;;;5.60;99.90;;;;;;5056750;28;20098;-85
2022/01/15 07:22:38;;;;;;;0.52;0.52;;;5.60;99.90;;;;;;5075586;28;20132;-85
2022/01/15 07:25:04;;;;;;;0.60;0.60;;;5.60;99.90;;;;;;5059403;28;20444;-83
2022/01/15 07:27:29;;;;;;;0.50;0.50;;;5.60;99.90;;;;;;5079271;28;20046;-83
2022/01/15 07:29:55;;;;;;;0.70;0.70;;;5.60;99.90;;;;;;5070736;28;20076;-84
2022/01/15 07:32:20;;;;;;;0.60;0.60;;;5.60;99.90;;;;;;5058742;28;20059;-84
2022/01/15 07:34:46;;;;;;;0.60;0.60;;;5.60;99.90;;;;;;5072287;28;20134;-84
2022/01/15 07:37:11;;;;;;;0.60;0.60;;;5.60;99.90;;;;;;5067617;28;20044;-85
2022/01/15 07:39:37;;;;;;;0.60;0.60;;;5.60;99.90;;;;;;5056464;28;20500;-85
2022/01/15 07:42:03;;;;;;;0.60;0.60;;;5.60;99.90;;;;;;5064667;28;20033;-84
2022/01/15 07:44:29;;;;;;;0.60;0.60;;;5.60;99.90;;;;;;5050093;28;20064;-85
2022/01/15 07:46:54;;;;;;;0.60;0.60;;;5.60;99.90;;;;;;5044565;28;20056;-85
2022/01/15 07:49:20;;;;;;;0.82;0.82;;;5.60;99.90;;;;;;5061260;28;20029;-84
2022/01/15 07:51:46;;;;;;;0.75;0.75;;;5.50;99.90;;;;;;5081120;28;20148;-85
2022/01/15 07:54:12;;;;;;;0.70;0.70;;;5.50;99.90;;;;;;5082309;28;20132;-84
2022/01/15 07:56:37;;;;;;;0.68;0.68;;;5.50;99.90;;;;;;5083829;28;20099;-85
2022/01/15 07:59:03;;;;;;;0.60;0.60;;;5.50;99.90;;;;;;5058044;28;20135;-84
2022/01/15 08:01:29;;;;;;;0.60;0.60;;;5.60;99.90;;;;;;5077287;28;20520;-85
2022/01/15 08:03:55;;;;;;;0.80;0.80;;;5.50;99.90;;;;;;5085958;28;20504;-84
2022/01/15 08:06:21;;;;;;;0.60;0.60;;;5.50;99.90;;;;;;5065410;28;20041;-84
2022/01/15 08:08:46;;;;;;;0.60;0.60;;;5.50;99.90;;;;;;5078816;28;20041;-85
2022/01/15 08:11:12;;;;;;;0.60;0.60;;;5.50;99.90;;;;;;5053055;28;20041;-84
2022/01/15 08:13:37;;;;;;;0.60;0.60;;;5.50;99.90;;;;;;5067972;28;20040;-84
2022/01/15 08:16:04;;;;;;;0.80;0.80;;;5.50;99.90;;;;;;5081760;28;20063;-84
2022/01/15 08:18:33;;;;;;;0.70;0.70;;;5.50;99.90;;;;;;5078572;28;20420;-84
2022/01/15 08:20:59;;;;;;;0.52;0.52;;;5.50;99.90;;;;;;5076062;28;20037;-83
2022/01/15 08:23:25;;;;;;;0.80;0.80;;;5.50;99.90;;;;;;5081125;28;20044;-84
2022/01/15 08:25:51;;;;;;;0.60;0.60;;;5.50;99.90;;;;;;5058997;28;20068;-83
2022/01/15 08:28:17;;;;;;;0.60;0.60;;;5.50;99.90;;;;;;5067651;28;20037;-83
2022/01/15 08:30:43;;;;;;;0.70;0.70;;;5.50;99.90;;;;;;5077417;28;20049;-84
2022/01/15 08:33:09;;;;;;;0.60;0.60;;;5.50;99.90;;;;;;5077628;28;20072;-84
2022/01/15 08:35:35;;;;;;;0.70;0.70;;;5.50;99.90;;;;;;5081147;28;20060;-84
2022/01/15 08:38:03;;;;;;;0.60;0.60;;;5.50;99.90;;;;;;5054664;28;20385;-85
2022/01/15 08:40:29;;;;;;;0.60;0.60;;;5.50;99.90;;;;;;5071510;28;20106;-84
2022/01/15 08:42:54;;;;;;;0.70;0.70;;;5.50;99.90;;;;;;5069305;28;20158;-84
2022/01/15 08:45:20;;;;;;;0.60;0.60;;;5.50;99.90;;;;;;5062185;28;20148;-84
2022/01/15 08:47:46;;;;;;;0.70;0.70;;;5.50;99.90;;;;;;5056740;28;20076;-84
2022/01/15 08:50:14;;;;;;;0.63;0.63;;;5.50;99.90;;;;;;5079615;28;20040;-85
2022/01/15 08:52:39;;;;;;;0.60;0.60;;;5.50;99.90;;;;;;5072666;28;20048;-84
2022/01/15 08:55:06;;;;;;;0.60;0.60;;;5.60;99.90;;;;;;5077321;28;20148;-84
2022/01/15 08:57:32;;;;;;;0.60;0.60;;;5.50;99.90;;;;;;5065511;28;20480;-84
2022/01/15 08:59:57;;;;;;;0.50;0.50;;;5.60;99.90;;;;;;5063164;28;20041;-84
2022/01/15 09:02:23;;;;;;;0.93;0.93;;;5.60;99.90;;;;;;5073408;28;20036;-84
2022/01/15 09:04:49;;;;;;;2.00;0.98;;;5.50;99.90;;;;;;5080804;28;20135;-84
2022/01/15 09:07:14;;;;;;;0.60;0.60;;;5.60;99.90;;;;;;5078940;28;20059;-85
2022/01/15 09:09:41;;;;;;;0.80;0.80;;;5.60;99.90;;;;;;5056604;28;20045;-84
2022/01/15 09:12:07;;;;;;;0.60;0.60;;;5.50;99.90;;;;;;5076455;28;20101;-85
2022/01/15 09:14:33;;;;;;;0.93;0.93;;;5.50;99.90;;;;;;5081216;28;20029;-85
2022/01/15 09:16:58;;;;;;;0.60;0.60;;;5.50;99.90;;;;;;5073399;28;20051;-84
2022/01/15 09:19:24;;;;;;;0.70;0.70;;;5.50;99.90;;;;;;5074275;28;20199;-84
2022/01/15 09:21:50;;;;;;;0.60;0.60;;;5.50;99.90;;;;;;5059370;28;20033;-84
2022/01/15 09:24:16;;;;;;;0.63;0.63;;;5.50;99.90;;;;;;5064264;28;20467;-85
2022/01/15 09:26:59;;;;;;;0.70;0.70;;;5.50;99.90;;;;;;5051705;28;20041;-85
2022/01/15 09:32:09;;;;;;;0.63;0.63;;;5.50;99.90;;;;;;5070512;28;20064;-85
2022/01/15 09:34:36;;;;;;;0.70;0.70;;;5.60;99.90;;;;;;5048381;28;20089;-85
2022/01/15 09:37:04;;;;;;;1.00;0.80;;;5.60;99.90;;;;;;5061757;28;20044;-85
2022/01/15 09:39:31;;;;;;;0.60;0.60;;;5.60;99.90;;;;;;5063319;28;20044;-84
2022/01/15 09:41:57;;;;;;;0.60;0.60;;;5.60;99.90;;;;;;5072562;28;20036;-84
2022/01/15 09:44:24;;;;;;;0.85;0.85;;;5.60;99.90;;;;;;5052985;28;20051;-84
2022/01/15 09:46:50;;;;;;;1.13;1.02;;;5.60;99.90;;;;;;5064680;28;20074;-85
2022/01/15 09:49:17;;;;;;;0.80;0.80;;;5.60;99.90;;;;;;5057000;28;20102;-84
2022/01/15 09:51:44;;;;;;;1.10;0.80;;;5.60;99.90;;;;;;5047870;28;20394;-84
2022/01/15 09:54:12;;;;;;;0.50;0.50;;;5.60;99.90;;;;;;5054920;28;20041;-84
2022/01/15 09:56:38;;;;;;;0.70;0.70;;;5.60;99.90;;;;;;5060546;28;20045;-84
2022/01/15 09:59:04;;;;;;;0.60;0.60;;;5.60;99.90;;;;;;5050657;28;20440;-84
2022/01/15 10:01:32;;;;;;;0.60;0.60;;;5.70;99.90;;;;;;5051756;28;20045;-83
2022/01/15 10:03:59;;;;;;;0.60;0.60;;;5.70;99.90;;;;;;5053106;28;20151;-82
2022/01/15 10:06:25;;;;;;;0.80;0.80;;;5.70;99.90;;;;;;5052544;28;20543;-84
2022/01/15 10:09:01;;;;;;;0.80;0.80;;;5.70;99.90;;;;;;5055602;28;20048;-84
2022/01/15 10:11:47;;;;;;;0.60;0.60;;;5.70;99.90;;;;;;5071774;28;20044;-84
2022/01/15 10:14:33;;;;;;;0.70;0.70;;;5.80;99.90;;;;;;5080198;28;20144;-85
2022/01/15 10:17:02;;;;;;;0.70;0.70;;;5.80;99.90;;;;;;5059795;28;20062;-84
2022/01/15 10:19:30;;;;;;;0.60;0.60;;;5.80;99.90;;;;;;5051061;28;20076;-84
2022/01/15 10:22:07;;;;;;;1.48;1.17;;;5.80;99.90;;;;;;5071731;28;20053;-83
2022/01/15 10:24:32;;;;;;;0.75;0.75;;;5.80;99.90;;;;;;5059789;28;20082;-84
2022/01/15 10:27:20;;;;;;;0.75;0.75;;;5.80;99.90;;;;;;5063927;28;20109;-84
2022/01/15 10:29:50;;;;;;;0.60;0.60;;;5.90;99.90;;;;;;5069950;28;20048;-84
2022/01/15 10:32:15;;;;;;;0.95;0.95;;;5.90;99.90;;;;;;5053788;28;20041;-84
2022/01/15 10:34:43;;;;;;;0.80;0.80;;;5.80;99.90;;;;;;5067612;28;20465;-84
2022/01/15 10:37:17;;;;;;;0.60;0.60;;;5.90;99.90;;;;;;5076325;28;20040;-83
2022/01/15 10:40:06;;;;;;;0.55;0.55;;;5.90;99.90;;;;;;5067909;28;20037;-83
2022/01/15 10:42:33;;;;;;;1.25;1.15;;;5.90;99.90;;;;;;5055127;28;20131;-83
2022/01/15 10:45:06;;;;;;;1.05;1.02;;;5.90;99.90;;;;;;5080701;28;20102;-84
2022/01/15 10:47:40;;;;;;;0.60;0.60;;;6.00;99.90;;;;;;5046931;28;20037;-84
2022/01/15 10:50:06;;;;;;;1.08;0.98;;;5.90;99.90;;;;;;5068045;28;20072;-84
2022/01/15 10:52:32;;;;;;;0.60;0.60;;;5.90;99.90;;;;;;5063171;28;20085;-84
2022/01/15 10:55:08;;;;;;;1.30;1.20;;;5.90;99.90;;;;;;5059987;28;20158;-84
2022/01/15 10:57:39;;;;;;;0.93;0.93;;;5.90;99.90;;;;;;5067369;28;20041;-84
2022/01/15 11:00:18;;;;;;;1.02;1.00;;;5.90;99.90;;;;;;5049423;28;20086;-84
2022/01/15 11:02:56;;;;;;;1.10;0.80;;;5.90;99.90;;;;;;5067560;28;20045;-84
2022/01/15 11:05:35;;;;;;;0.60;0.60;;;5.90;99.90;;;;;;5073845;28;20087;-83
2022/01/15 11:08:26;;;;;;;1.58;1.13;;;5.90;99.90;;;;;;5064770;28;20040;-84
2022/01/15 11:10:54;;;;;;;0.93;0.93;;;5.90;99.90;;;;;;5068845;28;20108;-84
2022/01/15 11:13:47;;;;;;;0.70;0.70;;;5.90;99.90;;;;;;5069395;28;20053;-84
2022/01/15 11:16:17;;;;;;;2.00;1.55;;;5.80;99.90;;;;;;5065359;28;20056;-84
2022/01/15 11:18:49;;;;;;;0.77;0.77;;;5.80;99.90;;;;;;5066998;28;20056;-84
2022/01/15 11:21:18;;;;;;;0.80;0.80;;;5.80;99.90;;;;;;5061051;28;20044;-84
2022/01/15 11:23:45;;;;;;;0.60;0.60;;;5.70;99.90;;;;;;5047901;28;20037;-84
2022/01/15 11:26:14;;;;;;;0.63;0.63;;;5.80;99.90;;;;;;5069767;28;20037;-84
2022/01/15 11:28:42;;;;;;;0.98;0.98;;;5.80;99.90;;;;;;5046980;28;20112;-85
2022/01/15 11:31:11;;;;;;;0.77;0.77;;;5.80;99.90;;;;;;5049478;28;20036;-84
2022/01/15 11:33:48;;;;;;;1.25;1.15;;;5.80;99.90;;;;;;5042994;28;20112;-85
2022/01/15 11:36:36;;;;;;;0.80;0.80;;;5.70;99.90;;;;;;5061833;28;20037;-84
2022/01/15 11:39:18;;;;;;;0.60;0.60;;;5.80;99.90;;;;;;5049208;28;20128;-84
2022/01/15 11:41:48;;;;;;;0.80;0.80;;;5.80;99.90;;;;;;5053027;28;20048;-84
2022/01/15 11:44:18;;;;;;;0.70;0.70;;;5.80;99.90;;;;;;5066031;28;20049;-84
2022/01/15 11:46:47;;;;;;;0.60;0.60;;;5.70;99.90;;;;;;5042905;28;20041;-83
2022/01/15 11:49:28;;;;;;;0.75;0.75;;;5.70;99.90;;;;;;5057825;28;20033;-83
2022/01/15 11:52:18;;;;;;;0.77;0.77;;;5.70;99.90;;;;;;5045192;28;20049;-84
2022/01/15 11:54:58;;;;;;;0.70;0.70;;;5.70;99.90;;;;;;5052903;28;20044;-84
2022/01/15 11:57:33;;;;;;;1.40;1.30;;;5.70;99.90;;;;;;5046078;28;20052;-84
2022/01/15 12:00:01;;;;;;;0.70;0.70;;;5.80;99.90;;;;;;5063746;28;20105;-84
2022/01/15 12:02:38;;;;;;;1.25;1.10;;;5.70;99.90;;;;;;5058890;28;20457;-84
2022/01/15 12:05:23;;;;;;;0.70;0.70;;;5.70;99.90;;;;;;5070367;28;20062;-84
2022/01/15 12:08:01;;;;;;;0.70;0.70;;;5.70;99.90;;;;;;5066968;28;20044;-84
2022/01/15 12:10:42;;;;;;;1.20;1.10;;;5.70;99.90;;;;;;5073314;28;20113;-83
2022/01/15 12:13:14;;;;;;;0.60;0.60;;;5.70;99.90;;;;;;5073515;28;20124;-84
2022/01/15 12:15:40;;;;;;;0.70;0.70;;;5.70;99.90;;;;;;5060729;28;20104;-84
2022/01/15 12:18:15;;;;;;;0.60;0.60;;;5.90;99.90;;;;;;5068577;28;20048;-84
2022/01/15 12:20:41;;;;;;;1.25;0.80;;;5.70;99.90;;;;;;5056992;28;20044;-84
2022/01/15 12:23:19;;;;;;;0.82;0.82;;;5.70;99.90;;;;;;5060275;28;20512;-83
2022/01/15 12:25:52;;;;;;;1.02;1.02;;;5.80;99.90;;;;;;5070904;28;20064;-84
2022/01/15 12:28:18;;;;;;;0.60;0.60;;;5.80;99.90;;;;;;5070927;28;20416;-85
2022/01/15 12:30:47;;;;;;;0.90;0.90;;;5.70;99.90;;;;;;5075240;28;20182;-86
2022/01/15 12:33:15;;;;;;;0.60;0.60;;;5.80;99.90;;;;;;5055722;28;20063;-85
2022/01/15 12:35:43;;;;;;;1.55;1.45;;;5.70;99.90;;;;;;5054057;28;20064;-84
2022/01/15 12:38:21;;;;;;;0.90;0.75;;;5.70;99.90;;;;;;5073869;28;20044;-85
2022/01/15 12:40:52;;;;;;;1.05;1.00;;;5.70;99.90;;;;;;5078769;28;20048;-85
2022/01/15 12:43:35;;;;;;;1.25;1.15;;;5.70;99.90;;;;;;5052161;28;20060;-85
2022/01/15 12:46:02;;;;;;;0.80;0.80;;;5.70;99.90;;;;;;5075921;28;20121;-85
2022/01/15 12:48:30;;;;;;;0.70;0.70;;;5.70;99.90;;;;;;5058904;28;20123;-85
2022/01/15 12:50:59;;;;;;;0.85;0.85;;;5.70;99.90;;;;;;5062188;28;20045;-84
2022/01/15 12:53:30;;;;;;;1.95;1.15;;;5.70;99.90;;;;;;5075387;28;21766;-85
2022/01/15 12:55:57;;;;;;;0.80;0.80;;;5.70;99.90;;;;;;5061217;28;20086;-85
2022/01/15 12:58:25;;;;;;;1.55;1.45;;;5.70;99.90;;;;;;5050612;28;20041;-85
2022/01/15 13:00:52;;;;;;;1.00;0.90;;;5.60;99.90;;;;;;5066978;28;20048;-85
2022/01/15 13:03:25;;;;;;;1.42;1.33;;;5.60;99.90;;;;;;5081761;28;20047;-84
2022/01/15 13:06:00;;;;;;;1.13;1.02;;;5.60;99.90;;;;;;5067461;28;20041;-85
2022/01/15 13:08:36;;;;;;;1.05;1.00;;;5.60;99.90;;;;;;5073231;28;20029;-85
2022/01/15 13:11:07;;;;;;;0.80;0.80;;;5.60;99.90;;;;;;5058964;28;20128;-85
2022/01/15 13:14:04;;;;;;;0.85;0.85;;;5.50;99.90;;;;;;5056174;28;20068;-84
2022/01/15 13:16:31;;;;;;;0.80;0.80;;;5.50;99.90;;;;;;5079702;28;20162;-85
2022/01/15 13:19:01;;;;;;;0.70;0.70;;;5.50;99.90;;;;;;5058515;28;20052;-85
2022/01/15 13:21:32;;;;;;;1.63;1.52;;;5.50;99.90;;;;;;5079405;28;20049;-84